createdAt,value
2019-05-11T00:00:22.617Z,99.90
2019-05-11T00:01:27.234Z,99.90
2019-05-11T00:02:31.868Z,99.90
2019-05-11T00:03:36.384Z,99.90
2019-05-11T00:04:40.999Z,99.90
2019-05-11T00:05:45.545Z,99.90
2019-05-11T00:06:50.093Z,99.90
2019-05-11T00:07:54.792Z,99.90
2019-05-11T00:08:59.369Z,99.90
2019-05-11T00:10:04.626Z,99.90
2019-05-11T00:11:09.302Z,99.90
2019-05-11T00:12:13.871Z,99.90
2019-05-11T00:13:18.432Z,99.90
2019-05-11T00:14:22.981Z,99.90
2019-05-11T00:15:27.564Z,99.90
2019-05-11T00:16:32.198Z,99.90
2019-05-11T00:17:36.743Z,99.90
2019-05-11T00:18:41.309Z,99.90
2019-05-11T00:19:45.813Z,99.90
2019-05-11T00:20:50.465Z,99.90
2019-05-11T00:21:55.059Z,99.90
2019-05-11T00:22:59.586Z,99.90
2019-05-11T00:24:04.109Z,99.90
2019-05-11T00:25:08.983Z,99.90
2019-05-11T00:26:13.569Z,99.90
2019-05-11T00:27:18.086Z,99.90
2019-05-11T00:28:22.591Z,99.90
2019-05-11T00:29:27.126Z,99.90
2019-05-11T00:30:31.694Z,99.90
2019-05-11T00:32:31.887Z,99.90
2019-05-11T00:33:36.476Z,99.90
2019-05-11T00:34:41.008Z,99.90
2019-05-11T00:35:45.551Z,99.90
2019-05-11T00:36:50.102Z,99.90
2019-05-11T00:37:54.602Z,99.90
2019-05-11T00:38:59.134Z,99.90
2019-05-11T00:40:13.881Z,99.90
2019-05-11T00:41:09.926Z,99.90
2019-05-11T00:42:14.500Z,99.90
2019-05-11T00:43:19.101Z,99.90
2019-05-11T00:44:23.630Z,99.90
2019-05-11T00:45:28.335Z,99.90
2019-05-11T00:46:32.865Z,99.90
2019-05-11T00:47:37.430Z,99.90
2019-05-11T00:48:42.044Z,99.90
2019-05-11T00:49:46.698Z,99.90
2019-05-11T00:50:51.300Z,99.90
2019-05-11T00:51:55.826Z,99.90
2019-05-11T00:53:00.380Z,99.90
2019-05-11T00:54:05.006Z,99.90
2019-05-11T00:55:10.275Z,99.90
2019-05-11T00:56:14.779Z,99.90
2019-05-11T00:57:19.305Z,99.90
2019-05-11T00:58:23.901Z,99.90
2019-05-11T00:59:28.395Z,99.90
2019-05-11T01:00:32.899Z,99.90
2019-05-11T01:01:37.449Z,99.90
2019-05-11T01:02:42.029Z,99.90
2019-05-11T01:03:46.585Z,99.90
2019-05-11T01:04:51.149Z,99.90
2019-05-11T01:05:56.133Z,99.90
2019-05-11T01:07:00.723Z,99.90
2019-05-11T01:08:05.279Z,99.90
2019-05-11T01:09:09.879Z,99.90
2019-05-11T01:10:23.679Z,99.90
2019-05-11T01:11:20.708Z,99.90
2019-05-11T01:12:25.281Z,99.90
2019-05-11T01:13:29.820Z,99.90
2019-05-11T01:14:34.326Z,99.90
2019-05-11T01:15:38.843Z,99.90
2019-05-11T01:16:43.394Z,99.90
2019-05-11T01:17:47.960Z,99.90
2019-05-11T01:18:53.719Z,99.90
2019-05-11T01:19:59.571Z,99.90
2019-05-11T01:21:04.223Z,99.90
2019-05-11T01:22:08.909Z,99.90
2019-05-11T01:23:13.543Z,99.90
2019-05-11T01:24:18.056Z,99.90
2019-05-11T01:25:22.636Z,99.90
2019-05-11T01:26:27.292Z,99.90
2019-05-11T01:27:31.816Z,99.90
2019-05-11T01:28:36.334Z,99.90
2019-05-11T01:29:40.858Z,99.90
2019-05-11T01:30:45.439Z,99.90
2019-05-11T01:31:50.118Z,99.90
2019-05-11T01:32:54.763Z,99.90
2019-05-11T01:33:59.275Z,99.90
2019-05-11T01:35:03.855Z,99.90
2019-05-11T01:36:08.404Z,99.90
2019-05-11T01:37:13.009Z,99.90
2019-05-11T01:38:17.531Z,99.90
2019-05-11T01:39:22.015Z,99.90
2019-05-11T01:40:26.587Z,99.90
2019-05-11T01:41:31.155Z,99.90
2019-05-11T01:42:35.827Z,99.90
2019-05-11T01:43:40.373Z,99.90
2019-05-11T01:44:44.957Z,99.90
2019-05-11T01:45:49.557Z,99.90
2019-05-11T01:46:54.163Z,99.90
2019-05-11T01:47:58.697Z,99.90
2019-05-11T01:49:03.346Z,99.90
2019-05-11T01:50:08.140Z,99.90
2019-05-11T01:51:12.674Z,99.90
2019-05-11T01:52:17.244Z,99.90
2019-05-11T01:53:21.765Z,99.90
2019-05-11T01:54:26.553Z,99.90
2019-05-11T01:55:31.039Z,99.90
2019-05-11T01:56:35.535Z,99.90
2019-05-11T01:57:40.023Z,99.90
2019-05-11T01:58:44.524Z,99.90
2019-05-11T01:59:49.024Z,99.90
2019-05-11T02:00:53.535Z,99.90
2019-05-11T02:01:58.062Z,99.90
2019-05-11T02:03:03.718Z,99.90
2019-05-11T02:04:08.538Z,99.90
2019-05-11T02:05:29.153Z,99.90
2019-05-11T02:06:33.730Z,99.90
2019-05-11T02:07:38.248Z,99.90
2019-05-11T02:08:42.758Z,99.90
2019-05-11T02:09:47.252Z,99.90
2019-05-11T02:10:51.764Z,99.90
2019-05-11T02:11:56.361Z,99.90
2019-05-11T02:13:02.099Z,99.90
2019-05-11T02:14:06.716Z,99.90
2019-05-11T02:15:11.532Z,99.90
2019-05-11T02:16:16.041Z,99.90
2019-05-11T02:17:20.531Z,99.90
2019-05-11T02:18:25.114Z,99.90
2019-05-11T02:19:29.628Z,99.90
2019-05-11T02:20:34.158Z,99.90
2019-05-11T02:21:38.664Z,99.90
2019-05-11T02:22:43.173Z,99.90
2019-05-11T02:23:47.756Z,99.90
2019-05-11T02:24:52.241Z,99.90
2019-05-11T02:25:56.727Z,99.90
2019-05-11T02:27:01.603Z,99.90
2019-05-11T02:28:06.173Z,99.90
2019-05-11T02:29:10.682Z,99.90
2019-05-11T02:30:17.043Z,99.90
2019-05-11T02:31:21.574Z,99.90
2019-05-11T02:32:26.240Z,99.90
2019-05-11T02:33:30.794Z,99.90
2019-05-11T02:34:35.379Z,99.90
2019-05-11T02:35:40.146Z,99.90
2019-05-11T02:36:44.746Z,99.90
2019-05-11T02:37:49.349Z,99.90
2019-05-11T02:38:53.852Z,99.90
2019-05-11T02:39:58.392Z,99.90
2019-05-11T02:41:02.959Z,99.90
2019-05-11T02:42:07.895Z,99.90
2019-05-11T02:43:12.495Z,99.90
2019-05-11T02:44:17.084Z,99.90
2019-05-11T02:45:38.915Z,99.90
2019-05-11T02:46:43.420Z,99.90
2019-05-11T02:47:48.010Z,99.90
2019-05-11T02:48:52.585Z,99.90
2019-05-11T02:49:57.217Z,99.90
2019-05-11T02:51:02.160Z,99.90
2019-05-11T02:52:07.254Z,99.90
2019-05-11T02:53:11.765Z,99.90
2019-05-11T02:54:16.411Z,99.90
2019-05-11T02:55:21.031Z,99.90
2019-05-11T02:56:25.535Z,99.90
2019-05-11T02:57:30.183Z,99.90
2019-05-11T02:58:34.692Z,99.90
2019-05-11T02:59:39.226Z,99.90
2019-05-11T03:00:45.181Z,99.90
2019-05-11T03:01:49.837Z,99.90
2019-05-11T03:02:54.428Z,99.90
2019-05-11T03:03:58.928Z,99.90
2019-05-11T03:05:03.491Z,99.90
2019-05-11T03:06:08.083Z,99.90
2019-05-11T03:07:13.598Z,99.90
2019-05-11T03:08:19.156Z,99.90
2019-05-11T03:09:26.465Z,99.90
2019-05-11T03:10:31.105Z,99.90
2019-05-11T03:11:53.650Z,99.90
2019-05-11T03:12:41.892Z,99.90
2019-05-11T03:13:46.371Z,99.90
2019-05-11T03:14:50.848Z,99.90
2019-05-11T03:15:55.681Z,99.90
2019-05-11T03:17:13.978Z,99.90
2019-05-11T03:18:18.669Z,99.90
2019-05-11T03:19:23.159Z,99.90
2019-05-11T03:20:27.721Z,99.90
2019-05-11T03:21:32.242Z,99.90
2019-05-11T03:22:37.596Z,99.90
2019-05-11T03:23:42.082Z,99.90
2019-05-11T03:24:46.637Z,99.90
2019-05-11T03:25:51.125Z,99.90
2019-05-11T03:26:55.653Z,99.90
2019-05-11T03:28:00.196Z,99.90
2019-05-11T03:29:04.749Z,99.90
2019-05-11T03:30:09.477Z,99.90
2019-05-11T03:31:14.122Z,99.90
2019-05-11T03:32:18.753Z,99.90
2019-05-11T03:33:23.309Z,99.90
2019-05-11T03:34:27.889Z,99.90
2019-05-11T03:35:32.436Z,99.90
2019-05-11T03:36:36.950Z,99.90
2019-05-11T03:37:41.537Z,99.90
2019-05-11T03:38:46.149Z,99.90
2019-05-11T03:39:50.716Z,99.90
2019-05-11T03:40:55.316Z,99.90
2019-05-11T03:42:14.083Z,99.90
2019-05-11T03:43:06.067Z,99.90
2019-05-11T03:44:10.673Z,99.90
2019-05-11T03:45:15.587Z,99.90
2019-05-11T03:46:20.123Z,99.90
2019-05-11T03:47:24.721Z,99.90
2019-05-11T03:48:29.235Z,99.90
2019-05-11T03:49:33.717Z,99.90
2019-05-11T03:50:38.209Z,99.90
2019-05-11T03:51:42.745Z,99.90
2019-05-11T03:52:47.428Z,99.90
2019-05-11T03:53:51.933Z,99.90
2019-05-11T03:54:56.451Z,99.90
2019-05-11T03:56:01.132Z,99.90
2019-05-11T03:57:05.741Z,99.90
2019-05-11T03:58:10.409Z,99.90
2019-05-11T03:59:14.979Z,99.90
2019-05-11T04:00:20.849Z,99.90
2019-05-11T04:01:26.654Z,99.90
2019-05-11T04:02:31.190Z,99.90
2019-05-11T04:03:35.704Z,99.90
2019-05-11T04:04:40.358Z,99.90
2019-05-11T04:05:45.068Z,99.90
2019-05-11T04:06:49.587Z,99.90
2019-05-11T04:07:54.072Z,99.90
2019-05-11T04:08:58.670Z,99.90
2019-05-11T04:10:03.277Z,99.90
2019-05-11T04:11:07.924Z,99.90
2019-05-11T04:12:12.535Z,99.90
2019-05-11T04:13:17.053Z,99.90
2019-05-11T04:14:21.587Z,99.90
2019-05-11T04:15:26.119Z,99.90
2019-05-11T04:16:30.620Z,99.90
2019-05-11T04:17:35.165Z,99.90
2019-05-11T04:18:39.715Z,99.90
2019-05-11T04:19:44.238Z,99.90
2019-05-11T04:20:48.909Z,99.90
2019-05-11T04:21:53.537Z,99.90
2019-05-11T04:22:58.090Z,99.90
2019-05-11T04:24:03.396Z,99.90
2019-05-11T04:25:08.075Z,99.90
2019-05-11T04:26:12.733Z,99.90
2019-05-11T04:27:19.705Z,99.90
2019-05-11T04:28:23.474Z,99.90
2019-05-11T04:29:28.001Z,99.90
2019-05-11T04:30:32.505Z,99.90
2019-05-11T04:31:37.018Z,99.90
2019-05-11T04:32:41.571Z,99.90
2019-05-11T04:33:46.083Z,99.90
2019-05-11T04:34:50.644Z,99.90
2019-05-11T04:35:55.336Z,99.90
2019-05-11T04:36:59.984Z,99.90
2019-05-11T04:38:04.629Z,99.90
2019-05-11T04:39:09.121Z,99.90
2019-05-11T04:40:13.947Z,99.90
2019-05-11T04:41:18.627Z,99.90
2019-05-11T04:42:23.336Z,99.90
2019-05-11T04:43:27.914Z,99.90
2019-05-11T04:44:32.431Z,99.90
2019-05-11T04:45:37.019Z,99.90
2019-05-11T04:46:41.664Z,99.90
2019-05-11T04:47:46.154Z,99.90
2019-05-11T04:48:50.659Z,99.90
2019-05-11T04:49:55.340Z,99.90
2019-05-11T04:51:00.041Z,99.90
2019-05-11T04:52:04.687Z,99.90
2019-05-11T04:53:09.205Z,99.90
2019-05-11T04:54:13.818Z,99.90
2019-05-11T04:55:18.633Z,99.90
2019-05-11T04:56:23.130Z,99.90
2019-05-11T04:57:27.640Z,99.90
2019-05-11T04:58:34.094Z,99.90
2019-05-11T04:59:38.451Z,99.90
2019-05-11T05:00:42.973Z,99.90
2019-05-11T05:01:47.509Z,99.90
2019-05-11T05:02:52.057Z,99.90
2019-05-11T05:04:12.994Z,99.90
2019-05-11T05:05:03.008Z,99.90
2019-05-11T05:06:21.741Z,99.90
2019-05-11T05:07:16.559Z,99.90
2019-05-11T05:08:21.332Z,99.90
2019-05-11T05:09:26.655Z,99.90
2019-05-11T05:10:31.283Z,99.90
2019-05-11T05:11:36.654Z,99.90
2019-05-11T05:12:50.798Z,99.90
2019-05-11T05:13:48.285Z,99.90
2019-05-11T05:14:52.808Z,99.90
2019-05-11T05:15:57.348Z,99.90
2019-05-11T05:17:01.871Z,99.80
2019-05-11T05:18:06.385Z,99.20
2019-05-11T05:19:10.884Z,98.80
2019-05-11T05:20:15.679Z,98.80
2019-05-11T05:21:20.276Z,98.40
2019-05-11T05:22:27.888Z,98.10
2019-05-11T05:23:31.156Z,97.80
2019-05-11T05:24:35.701Z,97.70
2019-05-11T05:25:40.223Z,97.70
2019-05-11T05:26:44.762Z,97.80
2019-05-11T05:27:49.248Z,97.80
2019-05-11T05:28:53.760Z,97.80
2019-05-11T05:29:58.364Z,97.90
2019-05-11T05:31:02.963Z,97.90
2019-05-11T05:32:07.549Z,97.90
2019-05-11T05:33:12.112Z,97.70
2019-05-11T05:34:16.609Z,97.80
2019-05-11T05:35:21.142Z,97.90
2019-05-11T05:36:25.717Z,98.00
2019-05-11T05:37:30.344Z,98.10
2019-05-11T05:38:34.920Z,98.20
2019-05-11T05:39:39.398Z,98.40
2019-05-11T05:40:43.924Z,98.40
2019-05-11T05:41:56.655Z,98.50
2019-05-11T05:42:54.717Z,98.50
2019-05-11T05:43:59.202Z,98.70
2019-05-11T05:45:03.836Z,98.70
2019-05-11T05:46:08.533Z,98.70
2019-05-11T05:47:13.043Z,98.60
2019-05-11T05:48:17.520Z,98.80
2019-05-11T05:49:22.168Z,98.80
2019-05-11T05:50:26.660Z,98.90
2019-05-11T05:51:31.170Z,98.90
2019-05-11T05:52:35.684Z,98.80
2019-05-11T05:53:40.191Z,98.80
2019-05-11T05:54:44.836Z,98.90
2019-05-11T05:55:49.383Z,98.90
2019-05-11T05:56:53.978Z,98.50
2019-05-11T05:57:58.571Z,98.40
2019-05-11T05:59:03.088Z,97.80
2019-05-11T06:00:08.219Z,97.90
2019-05-11T06:01:12.725Z,97.70
2019-05-11T06:02:17.247Z,97.10
2019-05-11T06:03:21.759Z,96.70
2019-05-11T06:04:26.343Z,96.80
2019-05-11T06:05:30.890Z,96.10
2019-05-11T06:06:35.473Z,95.90
2019-05-11T06:07:39.992Z,95.60
2019-05-11T06:08:44.577Z,95.00
2019-05-11T06:09:49.130Z,94.80
2019-05-11T06:10:53.644Z,94.30
2019-05-11T06:11:58.218Z,93.90
2019-05-11T06:13:02.731Z,93.50
2019-05-11T06:14:07.215Z,93.20
2019-05-11T06:15:12.940Z,92.90
2019-05-11T06:16:17.445Z,92.20
2019-05-11T06:17:21.946Z,92.00
2019-05-11T06:18:26.472Z,90.80
2019-05-11T06:19:30.992Z,90.60
2019-05-11T06:20:35.505Z,90.20
2019-05-11T06:21:39.996Z,89.80
2019-05-11T06:22:44.558Z,89.40
2019-05-11T06:23:49.056Z,89.00
2019-05-11T06:24:53.843Z,89.10
2019-05-11T06:25:58.399Z,87.20
2019-05-11T06:27:02.958Z,87.00
2019-05-11T06:28:07.431Z,86.90
2019-05-11T06:29:11.922Z,85.80
2019-05-11T06:30:16.944Z,85.60
2019-05-11T06:31:21.497Z,84.60
2019-05-11T06:32:25.988Z,84.90
2019-05-11T06:33:30.497Z,80.60
2019-05-11T06:34:35.140Z,77.10
2019-05-11T06:35:39.688Z,75.00
2019-05-11T06:36:44.251Z,74.80
2019-05-11T06:37:48.861Z,74.60
2019-05-11T06:38:53.424Z,72.90
2019-05-11T06:39:58.038Z,72.00
2019-05-11T06:41:02.671Z,71.20
2019-05-11T06:42:08.100Z,69.50
2019-05-11T06:43:12.592Z,67.70
2019-05-11T06:44:17.104Z,67.60
2019-05-11T06:45:21.754Z,66.50
2019-05-11T06:46:26.442Z,67.50
2019-05-11T06:47:31.197Z,66.50
2019-05-11T06:48:35.691Z,66.80
2019-05-11T06:49:40.291Z,67.30
2019-05-11T06:50:44.806Z,67.20
2019-05-11T06:51:49.405Z,67.00
2019-05-11T06:52:53.898Z,67.60
2019-05-11T06:53:58.423Z,67.90
2019-05-11T06:55:03.181Z,69.10
2019-05-11T06:56:07.883Z,69.20
2019-05-11T06:57:12.408Z,69.50
2019-05-11T06:58:16.925Z,70.50
2019-05-11T06:59:21.510Z,71.20
2019-05-11T07:00:26.292Z,71.90
2019-05-11T07:01:30.989Z,71.70
2019-05-11T07:02:35.567Z,71.60
2019-05-11T07:03:40.044Z,71.50
2019-05-11T07:04:44.613Z,71.20
2019-05-11T07:05:49.116Z,71.00
2019-05-11T07:06:53.644Z,71.60
2019-05-11T07:07:58.216Z,72.10
2019-05-11T07:09:02.867Z,72.30
2019-05-11T07:10:07.673Z,72.50
2019-05-11T07:11:12.174Z,72.50
2019-05-11T07:12:16.951Z,73.10
2019-05-11T07:13:21.684Z,73.90
2019-05-11T07:14:26.195Z,73.70
2019-05-11T07:15:30.744Z,73.00
2019-05-11T07:16:35.266Z,73.40
2019-05-11T07:17:39.765Z,73.50
2019-05-11T07:18:46.858Z,73.80
2019-05-11T07:19:51.527Z,73.70
2019-05-11T07:20:56.015Z,73.70
2019-05-11T07:22:00.531Z,73.40
2019-05-11T07:23:05.103Z,73.30
2019-05-11T07:24:09.603Z,72.80
2019-05-11T07:25:14.187Z,72.10
2019-05-11T07:26:18.757Z,70.60
2019-05-11T07:27:23.316Z,70.20
2019-05-11T07:28:27.805Z,70.20
2019-05-11T07:29:32.291Z,69.60
2019-05-11T07:30:36.903Z,68.50
2019-05-11T07:31:41.380Z,67.60
2019-05-11T07:32:47.941Z,66.30
2019-05-11T07:33:52.068Z,65.90
2019-05-11T07:34:57.755Z,65.60
2019-05-11T07:36:02.476Z,64.60
2019-05-11T07:37:08.250Z,64.80
2019-05-11T07:38:12.939Z,64.50
2019-05-11T07:39:18.672Z,64.50
2019-05-11T07:40:23.411Z,65.00
2019-05-11T07:41:28.249Z,64.30
2019-05-11T07:42:32.904Z,64.10
2019-05-11T07:43:38.153Z,64.60
2019-05-11T07:44:42.986Z,63.20
2019-05-11T07:45:48.088Z,63.00
2019-05-11T07:46:52.648Z,61.90
2019-05-11T07:47:58.999Z,60.70
2019-05-11T07:49:03.541Z,60.40
2019-05-11T07:50:08.610Z,59.90
2019-05-11T07:51:13.200Z,59.80
2019-05-11T07:52:18.259Z,59.40
2019-05-11T07:53:23.141Z,59.10
2019-05-11T07:54:28.198Z,58.80
2019-05-11T07:55:32.974Z,57.50
2019-05-11T07:56:39.052Z,57.00
2019-05-11T07:57:43.716Z,56.90
2019-05-11T07:58:48.311Z,57.70
2019-05-11T07:59:52.895Z,57.00
2019-05-11T08:00:58.181Z,57.00
2019-05-11T08:02:02.973Z,57.30
2019-05-11T08:03:09.002Z,57.40
2019-05-11T08:04:13.839Z,58.10
2019-05-11T08:05:18.433Z,58.60
2019-05-11T08:06:23.144Z,58.40
2019-05-11T08:07:28.494Z,58.10
2019-05-11T08:08:33.382Z,58.10
2019-05-11T08:09:38.213Z,58.20
2019-05-11T08:10:42.723Z,57.90
2019-05-11T08:11:47.884Z,57.90
2019-05-11T08:12:52.582Z,57.70
2019-05-11T08:14:00.316Z,58.00
2019-05-11T08:15:11.708Z,57.80
2019-05-11T08:16:11.398Z,57.70
2019-05-11T08:17:18.502Z,58.30
2019-05-11T08:18:22.173Z,57.70
2019-05-11T08:19:28.268Z,57.30
2019-05-11T08:20:33.036Z,57.20
2019-05-11T08:21:38.868Z,57.10
2019-05-11T08:22:43.589Z,57.30
2019-05-11T08:23:48.496Z,57.10
2019-05-11T08:24:53.266Z,56.90
2019-05-11T08:25:58.215Z,56.90
2019-05-11T08:27:03.513Z,56.70
2019-05-11T08:28:11.905Z,56.60
2019-05-11T08:29:14.486Z,56.40
2019-05-11T08:30:19.465Z,56.40
2019-05-11T08:31:23.985Z,55.50
2019-05-11T08:32:28.821Z,55.50
2019-05-11T08:33:33.650Z,54.60
2019-05-11T08:34:39.785Z,53.80
2019-05-11T08:35:44.592Z,52.70
2019-05-11T08:36:49.115Z,52.60
2019-05-11T08:37:53.692Z,52.20
2019-05-11T08:38:58.721Z,51.90
2019-05-11T08:40:03.461Z,51.90
2019-05-11T08:41:08.246Z,52.70
2019-05-11T08:42:12.989Z,53.20
2019-05-11T08:43:18.027Z,53.50
2019-05-11T08:44:22.828Z,54.20
2019-05-11T08:45:28.103Z,54.80
2019-05-11T08:46:32.828Z,54.90
2019-05-11T08:47:37.852Z,54.90
2019-05-11T08:48:42.589Z,54.70
2019-05-11T08:49:48.461Z,54.50
2019-05-11T08:50:53.280Z,54.10
2019-05-11T08:51:58.038Z,53.70
2019-05-11T08:53:02.804Z,53.30
2019-05-11T08:54:09.025Z,53.10
2019-05-11T08:55:13.861Z,52.20
2019-05-11T08:56:18.979Z,52.00
2019-05-11T08:57:23.708Z,52.80
2019-05-11T08:58:28.235Z,51.60
2019-05-11T08:59:32.809Z,51.60
2019-05-11T09:00:38.947Z,51.80
2019-05-11T09:01:44.741Z,52.10
2019-05-11T09:02:50.723Z,51.70
2019-05-11T09:03:57.687Z,51.20
2019-05-11T09:05:01.819Z,50.80
2019-05-11T09:06:08.417Z,50.90
2019-05-11T09:07:12.579Z,51.20
2019-05-11T09:08:18.771Z,51.00
2019-05-11T09:09:23.514Z,50.90
2019-05-11T09:10:28.383Z,50.40
2019-05-11T09:11:33.012Z,49.70
2019-05-11T09:12:38.278Z,49.90
2019-05-11T09:13:42.996Z,49.90
2019-05-11T09:14:47.958Z,50.10
2019-05-11T09:15:52.608Z,49.60
2019-05-11T09:16:57.762Z,49.40
2019-05-11T09:18:02.696Z,49.10
2019-05-11T09:19:08.813Z,49.40
2019-05-11T09:20:13.701Z,49.90
2019-05-11T09:21:19.045Z,49.50
2019-05-11T09:22:23.929Z,49.70
2019-05-11T09:23:34.443Z,49.90
2019-05-11T09:24:34.638Z,49.80
2019-05-11T09:25:39.166Z,49.60
2019-05-11T09:26:43.868Z,49.10
2019-05-11T09:27:48.524Z,48.90
2019-05-11T09:28:53.193Z,48.00
2019-05-11T09:29:58.779Z,47.70
2019-05-11T09:31:03.717Z,47.30
2019-05-11T09:32:08.808Z,47.70
2019-05-11T09:33:13.702Z,47.80
2019-05-11T09:34:18.303Z,47.90
2019-05-11T09:35:23.182Z,47.70
2019-05-11T09:36:28.543Z,46.80
2019-05-11T09:37:33.365Z,46.50
2019-05-11T09:38:38.449Z,46.40
2019-05-11T09:39:43.190Z,46.50
2019-05-11T09:40:48.110Z,46.00
2019-05-11T09:41:52.707Z,45.60
2019-05-11T09:42:58.514Z,45.20
2019-05-11T09:44:03.366Z,45.40
2019-05-11T09:45:08.243Z,45.20
2019-05-11T09:46:12.951Z,44.90
2019-05-11T09:47:18.985Z,44.30
2019-05-11T09:48:23.638Z,43.60
2019-05-11T09:49:43.375Z,44.30
2019-05-11T09:50:34.345Z,44.20
2019-05-11T09:51:39.288Z,44.40
2019-05-11T09:52:43.857Z,45.10
2019-05-11T09:53:48.574Z,45.10
2019-05-11T09:54:53.279Z,45.30
2019-05-11T09:55:58.750Z,45.10
2019-05-11T09:57:03.443Z,45.10
2019-05-11T09:58:08.577Z,45.60
2019-05-11T09:59:13.268Z,45.80
2019-05-11T10:00:18.122Z,45.30
2019-05-11T10:01:22.597Z,45.60
2019-05-11T10:02:28.035Z,45.90
2019-05-11T10:03:32.666Z,45.20
2019-05-11T10:04:38.175Z,44.80
2019-05-11T10:05:42.857Z,44.50
2019-05-11T10:06:48.116Z,44.20
2019-05-11T10:07:52.937Z,43.40
2019-05-11T10:09:00.200Z,43.70
2019-05-11T10:10:05.333Z,43.90
2019-05-11T10:11:09.880Z,44.20
2019-05-11T10:12:14.399Z,43.60
2019-05-11T10:13:18.880Z,43.40
2019-05-11T10:14:23.405Z,43.20
2019-05-11T10:15:28.135Z,42.90
2019-05-11T10:16:32.768Z,43.80
2019-05-11T10:17:38.293Z,44.00
2019-05-11T10:18:43.161Z,44.20
2019-05-11T10:19:49.695Z,44.10
2019-05-11T10:20:54.380Z,44.40
2019-05-11T10:21:58.922Z,43.60
2019-05-11T10:23:03.425Z,44.10
2019-05-11T10:24:10.017Z,44.20
2019-05-11T10:25:14.694Z,44.00
2019-05-11T10:26:19.372Z,44.20
2019-05-11T10:27:23.895Z,44.60
2019-05-11T10:28:28.578Z,44.80
2019-05-11T10:29:34.022Z,43.50
2019-05-11T10:30:38.781Z,43.90
2019-05-11T10:31:43.308Z,44.10
2019-05-11T10:32:48.518Z,43.70
2019-05-11T10:33:53.181Z,43.20
2019-05-11T10:34:58.402Z,43.40
2019-05-11T10:36:03.359Z,42.90
2019-05-11T10:37:08.637Z,43.50
2019-05-11T10:38:13.233Z,42.90
2019-05-11T10:39:18.722Z,43.00
2019-05-11T10:40:23.400Z,41.10
2019-05-11T10:41:28.591Z,40.70
2019-05-11T10:42:33.218Z,40.50
2019-05-11T10:43:38.302Z,40.90
2019-05-11T10:44:43.366Z,41.60
2019-05-11T10:45:48.483Z,42.10
2019-05-11T10:46:53.202Z,42.10
2019-05-11T10:48:00.929Z,42.70
2019-05-11T10:49:08.016Z,43.20
2019-05-11T10:50:12.867Z,43.00
2019-05-11T10:51:18.416Z,43.40
2019-05-11T10:52:23.179Z,43.10
2019-05-11T10:53:27.981Z,42.10
2019-05-11T10:54:32.635Z,41.90
2019-05-11T10:55:38.840Z,42.20
2019-05-11T10:56:43.461Z,42.50
2019-05-11T10:57:48.791Z,42.70
2019-05-11T10:58:53.488Z,42.40
2019-05-11T10:59:58.150Z,42.00
2019-05-11T11:01:02.726Z,41.00
2019-05-11T11:02:08.055Z,40.60
2019-05-11T11:03:12.799Z,40.90
2019-05-11T11:04:18.342Z,40.40
2019-05-11T11:05:23.206Z,40.50
2019-05-11T11:06:28.285Z,40.60
2019-05-11T11:07:32.971Z,40.40
2019-05-11T11:08:38.281Z,40.40
2019-05-11T11:09:43.069Z,40.00
2019-05-11T11:10:48.322Z,39.20
2019-05-11T11:11:53.100Z,38.40
2019-05-11T11:12:57.864Z,38.10
2019-05-11T11:14:02.569Z,38.50
2019-05-11T11:15:07.809Z,38.10
2019-05-11T11:16:12.480Z,38.10
2019-05-11T11:17:19.043Z,38.00
2019-05-11T11:18:23.292Z,37.60
2019-05-11T11:19:28.946Z,37.20
2019-05-11T11:20:33.877Z,36.70
2019-05-11T11:21:38.564Z,35.90
2019-05-11T11:22:44.346Z,35.30
2019-05-11T11:23:49.064Z,34.50
2019-05-11T11:24:53.968Z,34.40
2019-05-11T11:25:58.654Z,33.90
2019-05-11T11:27:03.202Z,31.90
2019-05-11T11:28:08.480Z,31.20
2019-05-11T11:29:13.849Z,30.00
2019-05-11T11:30:19.448Z,28.80
2019-05-11T11:31:24.023Z,28.40
2019-05-11T11:32:28.510Z,28.00
2019-05-11T11:33:33.050Z,27.10
2019-05-11T11:34:38.355Z,27.20
2019-05-11T11:35:43.068Z,27.10
2019-05-11T11:36:48.265Z,26.70
2019-05-11T11:37:52.920Z,27.00
2019-05-11T11:38:58.371Z,27.00
2019-05-11T11:40:03.128Z,27.40
2019-05-11T11:41:07.810Z,27.40
2019-05-11T11:42:12.496Z,27.10
2019-05-11T11:43:18.053Z,27.30
2019-05-11T11:44:22.737Z,27.60
2019-05-11T11:45:28.811Z,27.70
2019-05-11T11:46:46.710Z,26.30
2019-05-11T11:47:39.854Z,25.70
2019-05-11T11:48:44.380Z,24.70
2019-05-11T11:49:48.941Z,24.50
2019-05-11T11:50:53.418Z,24.60
2019-05-11T11:51:58.080Z,23.40
2019-05-11T11:53:02.781Z,22.80
2019-05-11T11:54:08.788Z,21.90
2019-05-11T11:55:13.568Z,21.40
2019-05-11T11:56:19.241Z,20.80
2019-05-11T11:57:24.055Z,19.80
2019-05-11T11:58:28.568Z,19.60
2019-05-11T11:59:33.100Z,18.90
2019-05-11T12:00:39.049Z,18.40
2019-05-11T12:01:43.903Z,17.40
2019-05-11T12:02:48.819Z,17.50
2019-05-11T12:03:53.368Z,17.90
2019-05-11T12:04:58.339Z,18.20
2019-05-11T12:06:03.036Z,18.10
2019-05-11T12:07:08.473Z,17.60
2019-05-11T12:08:13.262Z,17.40
2019-05-11T12:09:18.333Z,17.20
2019-05-11T12:10:22.883Z,17.20
2019-05-11T12:11:27.986Z,17.00
2019-05-11T12:12:32.717Z,17.10
2019-05-11T12:13:38.387Z,16.00
2019-05-11T12:14:43.230Z,15.70
2019-05-11T12:15:48.356Z,14.70
2019-05-11T12:17:06.782Z,14.60
2019-05-11T12:17:59.272Z,14.70
2019-05-11T12:19:05.378Z,14.50
2019-05-11T12:20:10.590Z,14.20
2019-05-11T12:21:15.418Z,14.30
2019-05-11T12:22:19.995Z,14.20
2019-05-11T12:23:24.555Z,14.00
2019-05-11T12:24:29.123Z,13.80
2019-05-11T12:25:37.314Z,13.70
2019-05-11T12:26:40.184Z,13.80
2019-05-11T12:27:44.735Z,13.50
2019-05-11T12:28:49.319Z,13.60
2019-05-11T12:29:53.801Z,13.20
2019-05-11T12:30:58.645Z,13.30
2019-05-11T12:32:07.959Z,13.60
2019-05-11T12:33:11.718Z,13.60
2019-05-11T12:34:17.932Z,13.70
2019-05-11T12:35:22.461Z,14.20
2019-05-11T12:36:28.085Z,14.20
2019-05-11T12:37:32.780Z,14.60
2019-05-11T12:38:38.184Z,15.10
2019-05-11T12:39:43.120Z,15.50
2019-05-11T12:40:47.842Z,15.70
2019-05-11T12:41:52.527Z,15.60
2019-05-11T12:42:59.083Z,15.40
2019-05-11T12:44:03.233Z,15.40
2019-05-11T12:45:08.384Z,15.50
2019-05-11T12:46:12.923Z,15.70
2019-05-11T12:47:22.239Z,15.70
2019-05-11T12:48:23.836Z,15.80
2019-05-11T12:49:28.929Z,15.70
2019-05-11T12:50:33.702Z,15.80
2019-05-11T12:51:38.421Z,16.20
2019-05-11T12:52:43.064Z,16.40
2019-05-11T12:53:47.871Z,16.40
2019-05-11T12:54:52.456Z,16.50
2019-05-11T12:55:58.899Z,15.80
2019-05-11T12:57:03.221Z,16.30
2019-05-11T12:58:08.536Z,16.10
2019-05-11T12:59:13.245Z,16.30
2019-05-11T13:00:18.152Z,16.30
2019-05-11T13:01:22.642Z,16.20
2019-05-11T13:02:28.027Z,16.20
2019-05-11T13:03:32.693Z,16.20
2019-05-11T13:04:38.529Z,16.10
2019-05-11T13:05:43.115Z,15.80
2019-05-11T13:06:47.991Z,15.80
2019-05-11T13:07:52.655Z,15.50
2019-05-11T13:08:58.761Z,15.20
2019-05-11T13:10:03.303Z,15.00
2019-05-11T13:11:08.326Z,15.00
2019-05-11T13:12:12.888Z,14.50
2019-05-11T13:13:18.194Z,14.30
2019-05-11T13:14:22.905Z,14.50
2019-05-11T13:15:28.139Z,13.80
2019-05-11T13:16:32.828Z,13.40
2019-05-11T13:17:40.168Z,13.20
2019-05-11T13:18:43.477Z,13.30
2019-05-11T13:19:48.103Z,13.10
2019-05-11T13:20:52.609Z,13.10
2019-05-11T13:21:58.938Z,14.10
2019-05-11T13:23:03.421Z,14.00
2019-05-11T13:24:08.479Z,14.00
2019-05-11T13:25:13.444Z,14.20
2019-05-11T13:26:18.249Z,15.00
2019-05-11T13:27:22.787Z,15.50
2019-05-11T13:28:28.414Z,15.20
2019-05-11T13:29:33.173Z,15.00
2019-05-11T13:30:38.213Z,14.80
2019-05-11T13:31:42.995Z,15.40
2019-05-11T13:32:48.992Z,15.00
2019-05-11T13:33:53.769Z,14.80
2019-05-11T13:34:58.481Z,14.50
2019-05-11T13:36:03.120Z,14.10
2019-05-11T13:37:08.165Z,14.40
2019-05-11T13:38:12.835Z,14.10
2019-05-11T13:39:18.054Z,13.90
2019-05-11T13:40:22.824Z,13.90
2019-05-11T13:41:28.089Z,15.00
2019-05-11T13:42:32.882Z,14.40
2019-05-11T13:43:38.566Z,14.60
2019-05-11T13:44:43.322Z,14.90
2019-05-11T13:45:47.984Z,14.50
2019-05-11T13:46:52.626Z,14.40
2019-05-11T13:47:59.165Z,14.30
2019-05-11T13:49:03.364Z,14.20
2019-05-11T13:50:08.185Z,14.20
2019-05-11T13:51:12.729Z,14.40
2019-05-11T13:52:17.993Z,13.80
2019-05-11T13:53:23.001Z,13.40
2019-05-11T13:54:29.644Z,13.50
2019-05-11T13:55:33.767Z,13.20
2019-05-11T13:56:38.430Z,13.00